<?xml version="1.0" encoding="UTF-8" standalone="no" ?>
<gpx xmlns="http://www.topografix.com/GPX/1/1" xmlns:xsi="http://www.w3.org/2001/XMLSchema-instance" xsi:schemaLocation="http://www.topografix.com/GPX/1/1 http://www.topografix.com/GPX/1/1/gpx.xsd" version="1.1" creator="VisuGPX - https://www.visugpx.com">
  <metadata>
    <name>Balade &quot;poussette</name>
    <desc><![CDATA[Au départ de la Brasserie de la Ferme, prenez à droite et tournez directement à gauche vers le village. 
Arrivée en bas, prenez le chemin le plus à gauche. Ne montez pas les deux autres routes.
Rentrez dans le bois et continuez tout droit sur le chemin principal.
Attention, ça descend fort ! Passez la barrière et montez tout droit.
Continuez le chemin le long du domaine de l?Enduro. Sortez du bois et continuez jusqu?aux maisons.
Arrivé aux maisons, prenez à droite et redescendez vers le village. Ne prenez pas l?échalier. 
À la fromagerie Tri Dieu, descendez tout droit.
Au croisement en bas, remontez à droite.
Tournez à droite pour arriver à la Brasserie de la Ferme]]></desc>
  </metadata>
  <trk>
    <name><![CDATA[Randonnée du 15/04/2019 à 15:24]]></name>
    <trkseg>
      <trkpt lat="50.62122" lon="5.92156">
        <ele>264</ele>
        <time>2019-04-16T11:12:48+02:00</time>
      </trkpt>
      <trkpt lat="50.62148" lon="5.92209">
        <ele>263</ele>
        <time>2019-04-16T11:12:53+02:00</time>
      </trkpt>
      <trkpt lat="50.62164" lon="5.92214">
        <ele>263</ele>
        <time>2019-04-16T11:12:58+02:00</time>
      </trkpt>
      <trkpt lat="50.62208" lon="5.92124">
        <ele>261</ele>
        <time>2019-04-16T11:13:03+02:00</time>
      </trkpt>
      <trkpt lat="50.62211" lon="5.92091">
        <ele>260</ele>
        <time>2019-04-16T11:13:08+02:00</time>
      </trkpt>
      <trkpt lat="50.62207" lon="5.92046">
        <ele>259</ele>
        <time>2019-04-16T11:13:13+02:00</time>
      </trkpt>
      <trkpt lat="50.62209" lon="5.92027">
        <ele>258</ele>
        <time>2019-04-16T11:13:18+02:00</time>
      </trkpt>
      <trkpt lat="50.62258" lon="5.91986">
        <ele>256</ele>
        <time>2019-04-16T11:13:23+02:00</time>
      </trkpt>
      <trkpt lat="50.62224" lon="5.91836">
        <ele>253</ele>
        <time>2019-04-16T11:13:28+02:00</time>
      </trkpt>
      <trkpt lat="50.62202" lon="5.91737">
        <ele>253</ele>
        <time>2019-04-16T11:13:33+02:00</time>
      </trkpt>
      <trkpt lat="50.62186" lon="5.9169">
        <ele>251</ele>
        <time>2019-04-16T11:13:38+02:00</time>
      </trkpt>
      <trkpt lat="50.62163" lon="5.91652">
        <ele>249</ele>
        <time>2019-04-16T11:13:43+02:00</time>
      </trkpt>
      <trkpt lat="50.62138" lon="5.91604">
        <ele>249</ele>
        <time>2019-04-16T11:13:48+02:00</time>
      </trkpt>
      <trkpt lat="50.62125" lon="5.91542">
        <ele>250</ele>
        <time>2019-04-16T11:13:53+02:00</time>
      </trkpt>
      <trkpt lat="50.62109" lon="5.91484">
        <ele>250</ele>
        <time>2019-04-16T11:13:58+02:00</time>
      </trkpt>
      <trkpt lat="50.62111" lon="5.91443">
        <ele>251</ele>
        <time>2019-04-16T11:14:03+02:00</time>
      </trkpt>
      <trkpt lat="50.62119" lon="5.91381">
        <ele>254</ele>
        <time>2019-04-16T11:14:08+02:00</time>
      </trkpt>
      <trkpt lat="50.62123" lon="5.91293">
        <ele>257</ele>
        <time>2019-04-16T11:14:13+02:00</time>
      </trkpt>
      <trkpt lat="50.62125" lon="5.91246">
        <ele>259</ele>
        <time>2019-04-16T11:14:18+02:00</time>
      </trkpt>
      <trkpt lat="50.62118" lon="5.91205">
        <ele>261</ele>
        <time>2019-04-16T11:14:23+02:00</time>
      </trkpt>
      <trkpt lat="50.62099" lon="5.91132">
        <ele>263</ele>
        <time>2019-04-16T11:14:28+02:00</time>
      </trkpt>
      <trkpt lat="50.62089" lon="5.91089">
        <ele>264</ele>
        <time>2019-04-16T11:14:33+02:00</time>
      </trkpt>
      <trkpt lat="50.62083" lon="5.91038">
        <ele>268</ele>
        <time>2019-04-16T11:14:38+02:00</time>
      </trkpt>
      <trkpt lat="50.62069" lon="5.90954">
        <ele>270</ele>
        <time>2019-04-16T11:14:43+02:00</time>
      </trkpt>
      <trkpt lat="50.62074" lon="5.90926">
        <ele>272</ele>
        <time>2019-04-16T11:14:48+02:00</time>
      </trkpt>
      <trkpt lat="50.62096" lon="5.90858">
        <ele>275</ele>
        <time>2019-04-16T11:14:53+02:00</time>
      </trkpt>
      <trkpt lat="50.62117" lon="5.90804">
        <ele>274</ele>
        <time>2019-04-16T11:14:58+02:00</time>
      </trkpt>
      <trkpt lat="50.62143" lon="5.90757">
        <ele>274</ele>
        <time>2019-04-16T11:15:03+02:00</time>
      </trkpt>
      <trkpt lat="50.62194" lon="5.90744">
        <ele>273</ele>
        <time>2019-04-16T11:15:08+02:00</time>
      </trkpt>
      <trkpt lat="50.62253" lon="5.9069">
        <ele>260</ele>
        <time>2019-04-16T11:15:13+02:00</time>
      </trkpt>
      <trkpt lat="50.62271" lon="5.90705">
        <ele>256</ele>
        <time>2019-04-16T11:15:18+02:00</time>
      </trkpt>
      <trkpt lat="50.62294" lon="5.90703">
        <ele>250</ele>
        <time>2019-04-16T11:15:23+02:00</time>
      </trkpt>
      <trkpt lat="50.62292" lon="5.90669">
        <ele>247</ele>
        <time>2019-04-16T11:15:28+02:00</time>
      </trkpt>
      <trkpt lat="50.62287" lon="5.90637">
        <ele>243</ele>
        <time>2019-04-16T11:15:33+02:00</time>
      </trkpt>
      <trkpt lat="50.62314" lon="5.90647">
        <ele>238</ele>
        <time>2019-04-16T11:15:38+02:00</time>
      </trkpt>
      <trkpt lat="50.62336" lon="5.90673">
        <ele>236</ele>
        <time>2019-04-16T11:15:43+02:00</time>
      </trkpt>
      <trkpt lat="50.62352" lon="5.90716">
        <ele>238</ele>
        <time>2019-04-16T11:15:48+02:00</time>
      </trkpt>
      <trkpt lat="50.62356" lon="5.90767">
        <ele>240</ele>
        <time>2019-04-16T11:15:53+02:00</time>
      </trkpt>
      <trkpt lat="50.62373" lon="5.90819">
        <ele>242</ele>
        <time>2019-04-16T11:15:58+02:00</time>
      </trkpt>
      <trkpt lat="50.62389" lon="5.90982">
        <ele>254</ele>
        <time>2019-04-16T11:16:03+02:00</time>
      </trkpt>
      <trkpt lat="50.62403" lon="5.91001">
        <ele>255</ele>
        <time>2019-04-16T11:16:08+02:00</time>
      </trkpt>
      <trkpt lat="50.62428" lon="5.91003">
        <ele>255</ele>
        <time>2019-04-16T11:16:13+02:00</time>
      </trkpt>
      <trkpt lat="50.62437" lon="5.91044">
        <ele>256</ele>
        <time>2019-04-16T11:16:18+02:00</time>
      </trkpt>
      <trkpt lat="50.62454" lon="5.91072">
        <ele>257</ele>
        <time>2019-04-16T11:16:23+02:00</time>
      </trkpt>
      <trkpt lat="50.62476" lon="5.91134">
        <ele>259</ele>
        <time>2019-04-16T11:16:28+02:00</time>
      </trkpt>
      <trkpt lat="50.6251" lon="5.91164">
        <ele>260</ele>
        <time>2019-04-16T11:16:33+02:00</time>
      </trkpt>
      <trkpt lat="50.62532" lon="5.9122">
        <ele>263</ele>
        <time>2019-04-16T11:16:38+02:00</time>
      </trkpt>
      <trkpt lat="50.62562" lon="5.91272">
        <ele>265</ele>
        <time>2019-04-16T11:16:43+02:00</time>
      </trkpt>
      <trkpt lat="50.62669" lon="5.91557">
        <ele>273</ele>
        <time>2019-04-16T11:16:48+02:00</time>
      </trkpt>
      <trkpt lat="50.62558" lon="5.91694">
        <ele>274</ele>
        <time>2019-04-16T11:16:53+02:00</time>
      </trkpt>
      <trkpt lat="50.62505" lon="5.91765">
        <ele>274</ele>
        <time>2019-04-16T11:16:58+02:00</time>
      </trkpt>
      <trkpt lat="50.62495" lon="5.91791">
        <ele>274</ele>
        <time>2019-04-16T11:17:03+02:00</time>
      </trkpt>
      <trkpt lat="50.62467" lon="5.91797">
        <ele>274</ele>
        <time>2019-04-16T11:17:08+02:00</time>
      </trkpt>
      <trkpt lat="50.62426" lon="5.91838">
        <ele>274</ele>
        <time>2019-04-16T11:17:13+02:00</time>
      </trkpt>
      <trkpt lat="50.62398" lon="5.91864">
        <ele>272</ele>
        <time>2019-04-16T11:17:18+02:00</time>
      </trkpt>
      <trkpt lat="50.6239" lon="5.91896">
        <ele>271</ele>
        <time>2019-04-16T11:17:23+02:00</time>
      </trkpt>
      <trkpt lat="50.62369" lon="5.91907">
        <ele>268</ele>
        <time>2019-04-16T11:17:28+02:00</time>
      </trkpt>
      <trkpt lat="50.62339" lon="5.91922">
        <ele>264</ele>
        <time>2019-04-16T11:17:33+02:00</time>
      </trkpt>
      <trkpt lat="50.62305" lon="5.91903">
        <ele>261</ele>
        <time>2019-04-16T11:17:38+02:00</time>
      </trkpt>
      <trkpt lat="50.62287" lon="5.9187">
        <ele>259</ele>
        <time>2019-04-16T11:17:43+02:00</time>
      </trkpt>
      <trkpt lat="50.62272" lon="5.91877">
        <ele>257</ele>
        <time>2019-04-16T11:17:48+02:00</time>
      </trkpt>
      <trkpt lat="50.62261" lon="5.919">
        <ele>255</ele>
        <time>2019-04-16T11:17:53+02:00</time>
      </trkpt>
      <trkpt lat="50.62264" lon="5.91937">
        <ele>256</ele>
        <time>2019-04-16T11:17:58+02:00</time>
      </trkpt>
      <trkpt lat="50.62262" lon="5.9196">
        <ele>256</ele>
        <time>2019-04-16T11:18:03+02:00</time>
      </trkpt>
      <trkpt lat="50.62257" lon="5.91995">
        <ele>257</ele>
        <time>2019-04-16T11:18:08+02:00</time>
      </trkpt>
      <trkpt lat="50.62212" lon="5.9203">
        <ele>258</ele>
        <time>2019-04-16T11:18:13+02:00</time>
      </trkpt>
      <trkpt lat="50.62205" lon="5.92037">
        <ele>259</ele>
        <time>2019-04-16T11:18:18+02:00</time>
      </trkpt>
      <trkpt lat="50.62208" lon="5.92093">
        <ele>261</ele>
        <time>2019-04-16T11:18:23+02:00</time>
      </trkpt>
      <trkpt lat="50.62204" lon="5.92128">
        <ele>261</ele>
        <time>2019-04-16T11:18:28+02:00</time>
      </trkpt>
      <trkpt lat="50.62161" lon="5.9221">
        <ele>263</ele>
        <time>2019-04-16T11:18:33+02:00</time>
      </trkpt>
      <trkpt lat="50.6215" lon="5.9222">
        <ele>263</ele>
        <time>2019-04-16T11:18:38+02:00</time>
      </trkpt>
      <trkpt lat="50.62119" lon="5.92148">
        <ele>264</ele>
        <time>2019-04-16T11:18:43+02:00</time>
      </trkpt>
    </trkseg>
  </trk>
</gpx>